createdAt,value
2024-01-07T00:01:17.559Z,25.45
2024-01-07T00:03:20.376Z,25.55
2024-01-07T00:05:23.180Z,27.00
2024-01-07T00:07:25.948Z,27.45
2024-01-07T00:09:30.255Z,28.00
2024-01-07T00:11:32.978Z,28.00
2024-01-07T00:13:37.014Z,28.00
2024-01-07T00:15:39.888Z,28.36
2024-01-07T00:17:43.008Z,30.09
2024-01-07T00:19:45.824Z,32.00
2024-01-07T00:21:48.730Z,32.00
2024-01-07T00:23:51.704Z,32.00
2024-01-07T00:25:54.441Z,32.00
2024-01-07T00:28:00.078Z,32.82
2024-01-07T00:30:02.868Z,32.45
2024-01-07T00:32:05.690Z,32.73
2024-01-07T00:34:09.061Z,35.73
2024-01-07T00:36:11.838Z,36.00
2024-01-07T00:38:14.743Z,35.27
2024-01-07T00:40:19.140Z,33.82
2024-01-07T00:42:22.301Z,32.00
2024-01-07T00:44:26.199Z,30.00
2024-01-07T00:46:28.976Z,27.09
2024-01-07T00:48:34.197Z,26.00
2024-01-07T00:50:43.524Z,25.82
2024-01-07T00:52:47.579Z,24.45
2024-01-07T00:54:50.352Z,24.00
2024-01-07T00:56:53.086Z,24.36
2024-01-07T00:58:55.834Z,24.00
2024-01-07T01:00:58.910Z,24.45
2024-01-07T01:03:01.700Z,24.36
2024-01-07T01:05:05.254Z,24.00
2024-01-07T01:07:08.951Z,23.18
2024-01-07T01:09:13.045Z,22.64
2024-01-07T01:11:15.969Z,23.00
2024-01-07T01:13:18.724Z,23.00
2024-01-07T01:15:21.689Z,22.73
2024-01-07T01:17:24.686Z,22.91
2024-01-07T01:19:27.574Z,22.64
2024-01-07T01:21:30.406Z,22.00
2024-01-07T01:23:33.184Z,22.00
2024-01-07T01:25:37.144Z,22.00
2024-01-07T01:27:42.289Z,22.36
2024-01-07T01:29:45.032Z,22.27
2024-01-07T01:31:47.832Z,22.45
2024-01-07T01:33:50.802Z,23.73
2024-01-07T01:35:53.579Z,25.00
2024-01-07T01:37:56.847Z,26.00
2024-01-07T01:40:00.485Z,26.00
2024-01-07T01:42:03.360Z,26.00
2024-01-07T01:44:06.096Z,27.00
2024-01-07T01:46:10.222Z,27.00
2024-01-07T01:48:13.252Z,27.18
2024-01-07T01:50:18.993Z,27.45
2024-01-07T01:52:22.928Z,27.00
2024-01-07T01:54:25.930Z,25.55
2024-01-07T01:56:30.045Z,24.00
2024-01-07T01:58:35.682Z,23.18
2024-01-07T02:00:40.279Z,21.73
2024-01-07T02:02:43.159Z,21.00
2024-01-07T02:04:46.106Z,21.00
2024-01-07T02:06:48.950Z,21.00
2024-01-07T02:08:52.169Z,22.82
2024-01-07T02:10:54.922Z,23.91
2024-01-07T02:12:58.899Z,24.00
2024-01-07T02:15:01.723Z,23.91
2024-01-07T02:17:04.525Z,24.00
2024-01-07T02:19:07.681Z,24.18
2024-01-07T02:21:11.368Z,25.00
2024-01-07T02:23:14.129Z,25.91
2024-01-07T02:25:16.899Z,26.00
2024-01-07T02:27:19.725Z,26.00
2024-01-07T02:29:22.450Z,27.36
2024-01-07T02:31:26.684Z,31.45
2024-01-07T02:33:30.626Z,33.45
2024-01-07T02:35:33.459Z,33.45
2024-01-07T02:37:36.195Z,32.36
2024-01-07T02:39:39.024Z,31.36
2024-01-07T02:41:41.857Z,30.18
2024-01-07T02:43:44.601Z,31.00
2024-01-07T02:45:47.775Z,33.09
2024-01-07T02:47:50.552Z,36.27
2024-01-07T02:49:53.412Z,35.55
2024-01-07T02:51:56.268Z,32.91
2024-01-07T02:53:59.023Z,30.45
2024-01-07T02:56:02.059Z,30.00
2024-01-07T02:58:04.968Z,31.27
2024-01-07T03:00:08.892Z,33.00
2024-01-07T03:02:11.616Z,32.00
2024-01-07T03:04:16.781Z,31.18
2024-01-07T03:06:19.485Z,30.82
2024-01-07T03:08:22.260Z,30.00
2024-01-07T03:10:24.983Z,32.82
2024-01-07T03:12:27.799Z,33.45
2024-01-07T03:14:30.689Z,30.73
2024-01-07T03:16:33.478Z,27.09
2024-01-07T03:18:36.415Z,25.00
2024-01-07T03:20:39.334Z,25.09
2024-01-07T03:22:42.168Z,26.73
2024-01-07T03:24:45.154Z,28.82
2024-01-07T03:26:47.888Z,36.64
2024-01-07T03:28:50.611Z,42.18
2024-01-07T03:30:53.433Z,39.82
2024-01-07T03:32:57.578Z,36.45
2024-01-07T03:35:00.660Z,34.00
2024-01-07T03:37:03.500Z,34.64
2024-01-07T03:39:06.250Z,38.82
2024-01-07T03:41:09.409Z,42.36
2024-01-07T03:43:12.179Z,45.64
2024-01-07T03:45:16.086Z,43.36
2024-01-07T03:47:18.833Z,44.09
2024-01-07T03:49:21.668Z,49.64
2024-01-07T03:51:24.468Z,50.18
2024-01-07T03:53:27.205Z,49.55
2024-01-07T03:55:29.919Z,49.18
2024-01-07T03:57:34.556Z,52.00
2024-01-07T03:59:37.355Z,50.18
2024-01-07T04:01:40.138Z,43.27
2024-01-07T04:03:42.967Z,42.82
2024-01-07T04:05:48.741Z,45.91
2024-01-07T04:07:51.540Z,46.00
2024-01-07T04:09:54.318Z,46.73
2024-01-07T04:11:57.055Z,48.55
2024-01-07T04:13:59.783Z,49.00
2024-01-07T04:16:02.633Z,51.73
2024-01-07T04:18:06.254Z,54.64
2024-01-07T04:20:09.516Z,51.45
2024-01-07T04:22:12.352Z,48.64
2024-01-07T04:24:15.699Z,46.91
2024-01-07T04:26:18.439Z,45.18
2024-01-07T04:28:21.161Z,47.64
2024-01-07T04:30:23.975Z,52.27
2024-01-07T04:32:26.764Z,57.09
2024-01-07T04:34:29.558Z,62.55
2024-01-07T04:36:32.407Z,63.09
2024-01-07T04:38:35.889Z,62.09
2024-01-07T04:40:38.599Z,63.00
2024-01-07T04:42:41.384Z,64.73
2024-01-07T04:44:44.119Z,65.45
2024-01-07T04:46:48.658Z,68.09
2024-01-07T04:48:51.516Z,76.09
2024-01-07T04:50:54.335Z,77.18
2024-01-07T04:52:57.073Z,76.09
2024-01-07T04:55:00.314Z,73.64
2024-01-07T04:57:03.151Z,73.00
2024-01-07T04:59:05.889Z,70.55
2024-01-07T05:01:10.058Z,67.09
2024-01-07T05:03:13.967Z,68.82
2024-01-07T05:05:16.720Z,72.00
2024-01-07T05:07:19.506Z,73.18
2024-01-07T05:09:22.270Z,76.09
2024-01-07T05:11:25.105Z,76.55
2024-01-07T05:13:28.941Z,71.45
2024-01-07T05:15:31.906Z,67.18
2024-01-07T05:17:34.647Z,66.82
2024-01-07T05:19:37.480Z,65.00
2024-01-07T05:21:40.385Z,63.45
2024-01-07T05:23:43.236Z,63.00
2024-01-07T05:25:47.874Z,64.00
2024-01-07T05:27:50.677Z,65.36
2024-01-07T05:29:56.075Z,65.00
2024-01-07T05:31:59.351Z,65.91
2024-01-07T05:34:02.284Z,66.55
2024-01-07T05:36:05.336Z,67.64
2024-01-07T05:38:08.074Z,68.73
2024-01-07T05:40:11.407Z,67.73
2024-01-07T05:42:14.202Z,67.00
2024-01-07T05:44:16.928Z,67.00
2024-01-07T05:46:20.501Z,67.18
2024-01-07T05:48:24.502Z,71.82
2024-01-07T05:50:27.285Z,77.09
2024-01-07T05:52:32.674Z,78.27
2024-01-07T05:54:35.630Z,77.36
2024-01-07T05:56:41.853Z,76.09
2024-01-07T05:58:44.694Z,77.18
2024-01-07T06:00:47.474Z,89.18
2024-01-07T06:02:50.565Z,86.64
2024-01-07T06:04:53.634Z,90.91
2024-01-07T06:06:56.587Z,91.73
2024-01-07T06:08:59.509Z,92.91
2024-01-07T06:11:02.214Z,95.18
2024-01-07T06:13:05.079Z,94.73
2024-01-07T06:15:08.580Z,93.55
2024-01-07T06:17:11.406Z,93.36
2024-01-07T06:19:17.016Z,95.00
2024-01-07T06:21:19.778Z,94.82
2024-01-07T06:23:22.556Z,88.27
2024-01-07T06:25:27.659Z,78.73
2024-01-07T06:27:30.476Z,71.55
2024-01-07T06:29:33.628Z,76.64
2024-01-07T06:31:36.802Z,83.00
2024-01-07T06:33:39.934Z,79.09
2024-01-07T06:35:42.990Z,78.00
2024-01-07T06:37:46.440Z,77.91
2024-01-07T06:39:49.227Z,76.18
2024-01-07T06:41:52.005Z,76.91
2024-01-07T06:43:58.160Z,82.73
2024-01-07T06:46:01.072Z,89.00
2024-01-07T06:48:04.021Z,94.00
2024-01-07T06:50:07.199Z,86.64
2024-01-07T06:52:10.035Z,69.09
2024-01-07T06:54:14.943Z,69.45
2024-01-07T06:56:17.997Z,71.09
2024-01-07T06:58:20.717Z,73.55
2024-01-07T07:00:23.511Z,78.82
2024-01-07T07:02:26.252Z,81.64
2024-01-07T07:04:29.145Z,84.73
2024-01-07T07:06:31.952Z,85.64
2024-01-07T07:08:34.730Z,84.64
2024-01-07T07:10:38.252Z,82.64
2024-01-07T07:12:41.021Z,86.27
2024-01-07T07:14:43.805Z,98.91
2024-01-07T07:16:47.299Z,105.91
2024-01-07T07:18:50.134Z,105.55
2024-01-07T07:20:52.967Z,106.36
2024-01-07T07:22:55.699Z,91.27
2024-01-07T07:25:00.953Z,98.18
2024-01-07T07:27:04.818Z,129.36
2024-01-07T07:29:11.113Z,121.64
2024-01-07T07:31:13.957Z,123.27
2024-01-07T07:33:16.881Z,141.82
2024-01-07T07:35:19.839Z,134.55
2024-01-07T07:37:22.688Z,139.73
2024-01-07T07:39:25.534Z,167.91
2024-01-07T07:41:28.275Z,200.55
2024-01-07T07:43:31.016Z,173.64
2024-01-07T07:45:33.845Z,196.36
2024-01-07T07:47:36.605Z,375.73
2024-01-07T07:49:41.813Z,262.73
2024-01-07T07:51:45.195Z,326.64
2024-01-07T07:53:48.029Z,193.91
2024-01-07T07:55:51.012Z,109.91
2024-01-07T07:57:53.756Z,93.09
2024-01-07T07:59:56.512Z,90.55
2024-01-07T08:02:00.188Z,97.64
2024-01-07T08:04:04.186Z,94.82
2024-01-07T08:06:10.714Z,110.55
2024-01-07T08:08:15.007Z,123.82
2024-01-07T08:10:17.824Z,134.64
2024-01-07T08:12:20.685Z,119.82
2024-01-07T08:14:23.397Z,111.91
2024-01-07T08:16:26.110Z,99.36
2024-01-07T08:18:30.277Z,101.09
2024-01-07T08:20:33.117Z,110.64
2024-01-07T08:22:35.894Z,178.45
2024-01-07T08:24:38.670Z,137.64
2024-01-07T08:26:45.231Z,99.45
2024-01-07T08:28:48.395Z,110.09
2024-01-07T08:30:55.306Z,128.45
2024-01-07T08:32:58.188Z,131.18
2024-01-07T08:35:01.199Z,127.27
2024-01-07T08:37:04.134Z,94.18
2024-01-07T08:39:09.428Z,88.73
2024-01-07T08:41:16.135Z,98.18
2024-01-07T08:43:19.025Z,104.91
2024-01-07T08:45:21.819Z,133.45
2024-01-07T08:47:24.559Z,136.36
2024-01-07T08:49:27.557Z,133.09
2024-01-07T08:51:30.619Z,129.18
2024-01-07T08:53:33.544Z,109.55
2024-01-07T08:55:36.273Z,104.91
2024-01-07T08:57:39.702Z,104.73
2024-01-07T08:59:42.634Z,103.36
2024-01-07T09:01:45.438Z,104.73
2024-01-07T09:03:48.281Z,100.18
2024-01-07T09:05:52.271Z,94.73
2024-01-07T09:07:57.681Z,94.27
2024-01-07T09:10:02.834Z,94.64
2024-01-07T09:12:05.913Z,90.00
2024-01-07T09:14:09.492Z,85.82
2024-01-07T09:16:13.147Z,83.82
2024-01-07T09:18:16.235Z,86.73
2024-01-07T09:20:19.029Z,95.18
2024-01-07T09:22:22.836Z,94.18
2024-01-07T09:24:25.572Z,92.18
2024-01-07T09:26:28.282Z,89.73
2024-01-07T09:28:31.180Z,107.00
2024-01-07T09:30:34.151Z,109.55
2024-01-07T09:32:38.499Z,101.82
2024-01-07T09:34:41.618Z,92.91
2024-01-07T09:36:44.432Z,84.82
2024-01-07T09:38:47.175Z,78.09
2024-01-07T09:40:50.394Z,79.64
2024-01-07T09:42:53.982Z,77.91
2024-01-07T09:44:58.869Z,78.09
2024-01-07T09:47:02.388Z,78.73
2024-01-07T09:49:05.199Z,78.18
2024-01-07T09:51:11.932Z,173.91
2024-01-07T09:53:21.549Z,293.36
2024-01-07T09:55:33.913Z,298.55
2024-01-07T09:57:42.729Z,191.55
2024-01-07T09:59:47.666Z,131.55
2024-01-07T10:01:53.090Z,102.00
2024-01-07T10:03:58.382Z,112.55
2024-01-07T10:06:01.282Z,106.27
2024-01-07T10:08:04.081Z,92.00
2024-01-07T10:10:18.356Z,89.73
2024-01-07T10:12:24.319Z,88.82
2024-01-07T10:14:28.090Z,93.82
2024-01-07T10:16:33.442Z,96.00
2024-01-07T10:18:36.266Z,85.73
2024-01-07T10:20:41.780Z,81.73
2024-01-07T10:22:51.452Z,75.36
2024-01-07T10:24:54.255Z,65.91
2024-01-07T10:26:58.149Z,65.18
2024-01-07T10:29:00.890Z,62.73
2024-01-07T10:31:04.762Z,63.64
2024-01-07T10:33:09.275Z,64.18
2024-01-07T10:35:18.052Z,63.00
2024-01-07T10:37:20.797Z,56.45
2024-01-07T10:39:25.140Z,56.82
2024-01-07T10:41:28.994Z,54.36
2024-01-07T10:43:31.718Z,56.00
2024-01-07T10:45:34.476Z,58.45
2024-01-07T10:47:37.943Z,59.18
2024-01-07T10:49:45.451Z,54.45
2024-01-07T10:52:06.070Z,52.64
2024-01-07T10:54:12.769Z,60.18
2024-01-07T10:56:18.442Z,99.73
2024-01-07T10:58:22.130Z,72.00
2024-01-07T11:00:24.902Z,63.18
2024-01-07T11:02:29.090Z,62.36
2024-01-07T11:04:55.713Z,63.09
2024-01-07T11:07:04.289Z,73.55
2024-01-07T11:09:21.004Z,63.55
2024-01-07T11:11:28.707Z,56.45
2024-01-07T11:13:35.081Z,55.73
2024-01-07T11:15:49.885Z,51.91
2024-01-07T11:17:52.730Z,53.18
2024-01-07T11:20:00.724Z,53.09
2024-01-07T11:22:30.379Z,49.82
2024-01-07T11:24:39.668Z,47.64
2024-01-07T11:26:42.416Z,46.27
2024-01-07T11:28:51.121Z,46.82
2024-01-07T11:30:55.719Z,46.91
2024-01-07T11:33:01.900Z,47.18
2024-01-07T11:35:05.617Z,45.27
2024-01-07T11:37:12.485Z,47.27
2024-01-07T11:39:15.693Z,46.55
2024-01-07T11:41:21.467Z,40.27
2024-01-07T11:43:24.338Z,38.00
2024-01-07T11:45:27.163Z,43.55
2024-01-07T11:47:29.957Z,66.73
2024-01-07T11:49:35.739Z,60.73
2024-01-07T11:51:39.032Z,55.27
2024-01-07T11:53:41.883Z,56.91
2024-01-07T11:55:46.368Z,57.91
2024-01-07T11:57:49.131Z,57.64
2024-01-07T11:59:51.862Z,55.55
2024-01-07T12:01:56.027Z,80.91
2024-01-07T12:03:59.034Z,72.64
2024-01-07T12:06:02.046Z,69.45
2024-01-07T12:08:05.143Z,67.82
2024-01-07T12:10:13.376Z,65.36
2024-01-07T12:12:16.246Z,63.73
2024-01-07T12:14:20.475Z,61.18
2024-01-07T12:16:23.238Z,58.55
2024-01-07T12:18:27.476Z,58.91
2024-01-07T12:20:30.300Z,67.27
2024-01-07T12:22:33.018Z,68.36
2024-01-07T12:24:36.396Z,57.27
2024-01-07T12:26:39.287Z,45.82
2024-01-07T12:28:42.817Z,42.45
2024-01-07T12:30:45.670Z,49.09
2024-01-07T12:32:48.950Z,50.09
2024-01-07T12:34:51.801Z,49.09
2024-01-07T12:36:56.316Z,47.45
2024-01-07T12:38:59.470Z,47.00
2024-01-07T12:41:02.259Z,46.91
2024-01-07T12:43:05.500Z,46.55
2024-01-07T12:45:09.603Z,46.09
2024-01-07T12:47:13.019Z,48.27
2024-01-07T12:49:15.905Z,49.18
2024-01-07T12:51:21.562Z,53.27
2024-01-07T12:53:26.130Z,54.45
2024-01-07T12:55:28.884Z,53.00
2024-01-07T12:57:31.620Z,45.27
2024-01-07T12:59:34.776Z,43.45
2024-01-07T13:01:38.127Z,45.91
2024-01-07T13:03:42.007Z,47.36
2024-01-07T13:05:45.432Z,44.36
2024-01-07T13:07:48.523Z,35.36
2024-01-07T13:09:53.661Z,36.64
2024-01-07T13:11:56.445Z,37.91
2024-01-07T13:14:01.378Z,38.64
2024-01-07T13:16:04.311Z,38.00
2024-01-07T13:18:07.154Z,38.00
2024-01-07T13:20:12.896Z,37.00
2024-01-07T13:22:18.636Z,35.45
2024-01-07T13:24:21.415Z,34.00
2024-01-07T13:26:24.232Z,33.73
2024-01-07T13:28:27.050Z,31.00
2024-01-07T13:30:29.889Z,28.36
2024-01-07T13:32:38.197Z,24.73
2024-01-07T13:34:41.528Z,22.73
2024-01-07T13:36:44.536Z,22.64
2024-01-07T13:38:51.038Z,23.27
2024-01-07T13:40:54.353Z,26.45
2024-01-07T13:42:57.796Z,29.36
2024-01-07T13:45:00.636Z,32.09
2024-01-07T13:47:04.541Z,35.45
2024-01-07T13:49:08.772Z,35.18
2024-01-07T13:51:12.590Z,36.82
2024-01-07T13:53:15.744Z,36.00
2024-01-07T13:55:18.488Z,35.64
2024-01-07T13:57:21.782Z,35.00
2024-01-07T13:59:24.558Z,39.00
2024-01-07T14:01:27.977Z,46.00
2024-01-07T14:03:36.539Z,44.00
2024-01-07T14:05:39.393Z,43.00
2024-01-07T14:07:42.819Z,38.45
2024-01-07T14:09:45.561Z,35.45
2024-01-07T14:11:48.696Z,32.27
2024-01-07T14:13:51.671Z,29.64
2024-01-07T14:15:54.506Z,30.18
2024-01-07T14:17:58.473Z,36.55
2024-01-07T14:20:01.581Z,39.91
2024-01-07T14:22:04.586Z,38.55
2024-01-07T14:24:08.537Z,36.73
2024-01-07T14:26:11.277Z,35.18
2024-01-07T14:28:14.279Z,34.09
2024-01-07T14:30:17.139Z,32.82
2024-01-07T14:32:21.036Z,30.64
2024-01-07T14:34:24.624Z,28.45
2024-01-07T14:36:27.984Z,25.73
2024-01-07T14:38:30.720Z,24.64
2024-01-07T14:40:33.660Z,25.00
2024-01-07T14:42:36.441Z,24.73
2024-01-07T14:44:44.926Z,26.64
2024-01-07T14:46:53.378Z,26.00
2024-01-07T14:48:56.200Z,24.73
2024-01-07T14:50:58.975Z,23.00
2024-01-07T14:53:01.737Z,22.64
2024-01-07T14:55:04.696Z,26.82
2024-01-07T14:57:09.956Z,32.64
2024-01-07T14:59:12.773Z,31.64
2024-01-07T15:01:15.827Z,29.27
2024-01-07T15:03:18.689Z,29.27
2024-01-07T15:05:21.616Z,31.00
2024-01-07T15:07:24.960Z,30.45
2024-01-07T15:09:28.581Z,31.18
2024-01-07T15:11:31.300Z,31.82
2024-01-07T15:13:38.674Z,28.27
2024-01-07T15:15:42.560Z,43.00
2024-01-07T15:17:45.522Z,44.36
2024-01-07T15:19:48.442Z,40.18
2024-01-07T15:21:51.268Z,37.73
2024-01-07T15:23:54.032Z,44.82
2024-01-07T15:25:56.760Z,37.09
2024-01-07T15:27:59.585Z,29.55
2024-01-07T15:30:02.400Z,27.36
2024-01-07T15:32:06.890Z,26.91
2024-01-07T15:34:09.849Z,26.18
2024-01-07T15:36:12.714Z,27.36
2024-01-07T15:38:15.502Z,40.18
2024-01-07T15:40:18.437Z,37.73
2024-01-07T15:42:23.570Z,34.55
2024-01-07T15:44:28.484Z,28.91
2024-01-07T15:46:31.309Z,26.82
2024-01-07T15:48:34.096Z,26.00
2024-01-07T15:50:36.907Z,27.00
2024-01-07T15:52:41.348Z,26.45
2024-01-07T15:54:44.140Z,26.55
2024-01-07T15:56:47.125Z,28.18
2024-01-07T15:58:49.885Z,30.00
2024-01-07T16:00:52.705Z,30.00
2024-01-07T16:02:55.630Z,34.27
2024-01-07T16:04:59.488Z,41.91
2024-01-07T16:07:02.283Z,45.91
2024-01-07T16:09:05.083Z,49.45
2024-01-07T16:11:08.785Z,50.27
2024-01-07T16:13:12.857Z,48.82
2024-01-07T16:15:15.632Z,47.36
2024-01-07T16:17:18.369Z,48.09
2024-01-07T16:19:21.298Z,51.36
2024-01-07T16:21:24.182Z,37.73
2024-01-07T16:23:27.682Z,34.55
2024-01-07T16:25:30.528Z,36.27
2024-01-07T16:27:34.038Z,38.45
2024-01-07T16:29:44.500Z,40.91
2024-01-07T16:31:48.942Z,40.36
2024-01-07T16:33:51.780Z,39.91
2024-01-07T16:35:54.853Z,85.09
2024-01-07T16:37:57.685Z,60.09
2024-01-07T16:40:00.556Z,47.45
2024-01-07T16:42:03.736Z,32.73
2024-01-07T16:44:09.800Z,42.00
2024-01-07T16:46:15.648Z,45.82
2024-01-07T16:50:14.330Z,44.27
2024-01-07T16:50:41.320Z,54.09
2024-01-07T16:52:44.092Z,53.45
2024-01-07T16:54:49.390Z,42.45
2024-01-07T16:56:52.551Z,32.64
2024-01-07T16:58:56.282Z,32.45
2024-01-07T17:01:01.114Z,31.82
2024-01-07T17:03:04.562Z,29.27
2024-01-07T17:05:09.551Z,27.73
2024-01-07T17:07:12.857Z,25.55
2024-01-07T17:09:17.201Z,26.00
2024-01-07T17:11:20.165Z,26.82
2024-01-07T17:13:23.013Z,26.09
2024-01-07T17:15:27.439Z,23.82
2024-01-07T17:17:30.346Z,23.27
2024-01-07T17:19:33.615Z,38.45
2024-01-07T17:21:37.461Z,62.00
2024-01-07T17:23:40.832Z,69.09
2024-01-07T17:25:44.974Z,75.64
2024-01-07T17:27:49.838Z,74.91
2024-01-07T17:29:52.660Z,97.55
2024-01-07T17:31:56.223Z,92.55
2024-01-07T17:33:59.173Z,79.00
2024-01-07T17:36:01.996Z,83.82
2024-01-07T17:38:06.242Z,76.82
2024-01-07T17:40:09.490Z,56.82
2024-01-07T17:42:12.264Z,70.00
2024-01-07T17:44:15.063Z,75.18
2024-01-07T17:46:18.889Z,67.64
2024-01-07T17:48:22.420Z,56.73
2024-01-07T17:50:25.378Z,54.55
2024-01-07T17:52:28.241Z,59.55
2024-01-07T17:54:37.466Z,72.64
2024-01-07T17:56:40.299Z,77.73
2024-01-07T17:58:43.102Z,87.36
2024-01-07T18:00:46.053Z,69.73
2024-01-07T18:02:49.114Z,53.64
2024-01-07T18:04:52.519Z,52.09
2024-01-07T18:06:55.264Z,48.55
2024-01-07T18:08:58.814Z,52.27
2024-01-07T18:11:02.042Z,44.64
2024-01-07T18:13:06.871Z,40.55
2024-01-07T18:15:10.040Z,44.18
2024-01-07T18:17:15.310Z,48.09
2024-01-07T18:19:18.211Z,49.55
2024-01-07T18:21:21.455Z,49.82
2024-01-07T18:23:24.334Z,51.00
2024-01-07T18:25:27.391Z,51.36
2024-01-07T18:27:30.155Z,44.91
2024-01-07T18:29:32.977Z,40.73
2024-01-07T18:31:41.028Z,42.36
2024-01-07T18:33:43.881Z,44.09
2024-01-07T18:35:48.831Z,71.36
2024-01-07T18:37:52.483Z,53.27
2024-01-07T18:39:57.950Z,45.55
2024-01-07T18:42:00.823Z,44.55
2024-01-07T18:44:04.005Z,44.64
2024-01-07T18:46:11.250Z,46.00
2024-01-07T18:48:15.765Z,46.91
2024-01-07T18:50:20.438Z,85.73
2024-01-07T18:52:23.270Z,66.18
2024-01-07T18:54:27.739Z,43.55
2024-01-07T18:56:30.504Z,36.73
2024-01-07T18:58:35.641Z,32.27
2024-01-07T19:00:38.881Z,35.64
2024-01-07T19:02:41.989Z,37.09
2024-01-07T19:04:44.946Z,34.82
2024-01-07T19:06:51.033Z,30.64
2024-01-07T19:08:54.329Z,30.64
2024-01-07T19:10:57.142Z,31.09
2024-01-07T19:12:59.952Z,32.27
2024-01-07T19:15:02.746Z,33.18
2024-01-07T19:17:06.292Z,35.45
2024-01-07T19:19:10.053Z,38.55
2024-01-07T19:21:20.204Z,39.18
2024-01-07T19:23:23.400Z,44.64
2024-01-07T19:25:26.762Z,51.45
2024-01-07T19:27:29.876Z,64.18
2024-01-07T19:29:32.941Z,57.27
2024-01-07T19:31:38.515Z,51.36
2024-01-07T19:33:46.486Z,56.09
2024-01-07T19:35:49.631Z,52.91
2024-01-07T19:37:53.476Z,46.36
2024-01-07T19:39:58.443Z,42.09
2024-01-07T19:42:01.254Z,40.82
2024-01-07T19:44:06.912Z,40.36
2024-01-07T19:46:09.660Z,42.73
2024-01-07T19:48:13.901Z,44.27
2024-01-07T19:50:17.570Z,44.27
2024-01-07T19:52:20.684Z,44.00
2024-01-07T19:54:25.618Z,44.91
2024-01-07T19:56:28.429Z,46.73
2024-01-07T19:58:32.499Z,46.64
2024-01-07T20:00:35.283Z,45.00
2024-01-07T20:02:38.092Z,44.27
2024-01-07T20:04:42.588Z,44.64
2024-01-07T20:06:45.868Z,45.00
2024-01-07T20:08:50.423Z,48.09
2024-01-07T20:10:53.996Z,49.27
2024-01-07T20:12:59.594Z,54.64
2024-01-07T20:15:02.696Z,53.36
2024-01-07T20:17:06.463Z,47.09
2024-01-07T20:19:09.995Z,47.45
2024-01-07T20:21:34.465Z,47.45
2024-01-07T20:23:37.229Z,47.55
2024-01-07T20:25:40.519Z,46.91
2024-01-07T20:27:43.613Z,44.36
2024-01-07T20:29:46.584Z,44.00
2024-01-07T20:31:50.288Z,42.82
2024-01-07T20:33:54.027Z,41.73
2024-01-07T20:36:00.244Z,42.55
2024-01-07T20:38:02.979Z,37.82
2024-01-07T20:40:07.403Z,34.91
2024-01-07T20:42:18.751Z,35.00
2024-01-07T20:44:30.132Z,35.18
2024-01-07T20:46:33.322Z,37.27
2024-01-07T20:48:37.049Z,40.00
2024-01-07T20:50:39.897Z,40.73
2024-01-07T20:52:42.686Z,50.18
2024-01-07T20:54:45.858Z,50.73
2024-01-07T20:56:50.989Z,50.45
2024-01-07T20:58:53.759Z,48.00
2024-01-07T21:00:56.776Z,48.00
2024-01-07T21:02:59.528Z,48.00
2024-01-07T21:05:03.815Z,48.09
2024-01-07T21:07:09.183Z,44.00
2024-01-07T21:09:11.915Z,27.82
2024-01-07T21:11:16.343Z,28.45
2024-01-07T21:13:19.175Z,26.45
2024-01-07T21:15:21.906Z,27.00
2024-01-07T21:17:25.196Z,27.64
2024-01-07T21:19:28.009Z,28.18
2024-01-07T21:21:31.088Z,28.00
2024-01-07T21:23:34.222Z,28.00
2024-01-07T21:25:36.977Z,29.00
2024-01-07T21:27:39.684Z,32.45
2024-01-07T21:29:42.423Z,33.82
2024-01-07T21:31:46.167Z,34.00
2024-01-07T21:33:50.392Z,34.55
2024-01-07T21:35:57.638Z,33.18
2024-01-07T21:38:01.358Z,32.18
2024-01-07T21:40:07.159Z,31.91
2024-01-07T21:42:09.965Z,31.09
2024-01-07T21:44:13.281Z,32.36
2024-01-07T21:46:17.996Z,32.00
2024-01-07T21:48:20.804Z,33.45
2024-01-07T21:50:25.846Z,34.09
2024-01-07T21:52:32.676Z,35.00
2024-01-07T21:54:35.709Z,36.18
2024-01-07T21:56:41.092Z,38.45
2024-01-07T21:58:44.029Z,38.09
2024-01-07T22:00:47.328Z,39.64
2024-01-07T22:02:50.246Z,39.18
2024-01-07T22:04:54.182Z,36.36
2024-01-07T22:06:57.664Z,34.09
2024-01-07T22:09:00.787Z,29.55
2024-01-07T22:11:04.082Z,27.00
2024-01-07T22:13:06.865Z,26.55
2024-01-07T22:15:09.945Z,25.18
2024-01-07T22:17:12.740Z,25.18
2024-01-07T22:19:15.720Z,26.00
2024-01-07T22:21:20.496Z,25.64
2024-01-07T22:23:23.263Z,26.00
2024-01-07T22:25:26.020Z,26.00
2024-01-07T22:27:29.062Z,25.73
2024-01-07T22:29:32.521Z,26.00
2024-01-07T22:31:35.272Z,27.64
2024-01-07T22:33:38.164Z,29.00
2024-01-07T22:35:41.090Z,29.00
2024-01-07T22:37:43.837Z,29.00
2024-01-07T22:39:49.176Z,28.64
2024-01-07T22:41:51.948Z,28.00
2024-01-07T22:43:54.723Z,28.00
2024-01-07T22:45:57.656Z,27.27
2024-01-07T22:48:00.588Z,27.91
2024-01-07T22:50:04.187Z,30.18
2024-01-07T22:52:07.002Z,31.00
2024-01-07T22:54:10.528Z,32.27
2024-01-07T22:56:13.655Z,33.18
2024-01-07T22:58:16.471Z,34.55
2024-01-07T23:00:24.831Z,33.64
2024-01-07T23:02:27.644Z,32.18
2024-01-07T23:04:30.500Z,30.82
2024-01-07T23:06:34.975Z,32.00
2024-01-07T23:08:38.855Z,31.82
2024-01-07T23:10:43.228Z,32.73
2024-01-07T23:12:46.114Z,32.64
2024-01-07T23:14:48.843Z,49.36
2024-01-07T23:16:51.652Z,47.00
2024-01-07T23:18:54.832Z,44.64
2024-01-07T23:20:57.655Z,43.73
2024-01-07T23:23:01.208Z,47.36
2024-01-07T23:25:06.201Z,51.09
2024-01-07T23:27:09.380Z,48.55
2024-01-07T23:29:15.048Z,46.00
2024-01-07T23:31:17.955Z,46.00
2024-01-07T23:33:21.012Z,45.27
2024-01-07T23:35:24.142Z,44.64
2024-01-07T23:37:26.976Z,44.18
2024-01-07T23:39:32.416Z,44.00
2024-01-07T23:41:35.313Z,46.00
2024-01-07T23:43:38.164Z,48.64
2024-01-07T23:45:40.923Z,50.91
2024-01-07T23:47:46.590Z,51.00
2024-01-07T23:49:52.197Z,51.55
2024-01-07T23:51:55.001Z,54.09
2024-01-07T23:53:57.838Z,49.91
2024-01-07T23:56:03.452Z,47.00
2024-01-07T23:58:06.635Z,45.73
